createdAt,value
2022-09-06T00:01:31.143Z,14.60
2022-09-06T00:06:33.517Z,14.50
2022-09-06T00:11:36.682Z,14.50
2022-09-06T00:16:40.723Z,14.50
2022-09-06T00:21:43.083Z,14.40
2022-09-06T00:26:45.467Z,14.20
2022-09-06T00:31:47.945Z,14.20
2022-09-06T00:36:50.328Z,14.20
2022-09-06T00:41:52.944Z,14.10
2022-09-06T00:46:56.087Z,14.00
2022-09-06T00:52:03.408Z,14.00
2022-09-06T00:57:06.103Z,13.90
2022-09-06T01:02:09.701Z,13.70
2022-09-06T01:07:35.414Z,13.80
2022-09-06T01:13:10.061Z,13.70
2022-09-06T01:18:15.343Z,13.60
2022-09-06T01:23:38.954Z,13.60
2022-09-06T01:28:48.606Z,13.50
2022-09-06T01:34:06.171Z,13.50
2022-09-06T01:39:14.388Z,13.30
2022-09-06T01:44:16.946Z,13.30
2022-09-06T01:49:34.215Z,13.30
2022-09-06T01:55:04.846Z,13.20
2022-09-06T02:00:13.501Z,13.20
2022-09-06T02:05:28.523Z,13.10
2022-09-06T02:10:36.830Z,13.20
2022-09-06T02:15:44.771Z,13.00
2022-09-06T02:20:51.543Z,12.90
2022-09-06T02:26:00.296Z,13.00
2022-09-06T02:31:08.701Z,12.90
2022-09-06T02:36:11.328Z,12.80
2022-09-06T02:41:18.513Z,12.80
2022-09-06T02:46:21.053Z,12.60
2022-09-06T02:51:23.950Z,12.70
2022-09-06T02:56:26.313Z,12.70
2022-09-06T03:01:28.839Z,12.60
2022-09-06T03:06:31.819Z,12.60
2022-09-06T03:11:34.181Z,12.50
2022-09-06T03:16:38.554Z,12.40
2022-09-06T03:21:41.026Z,12.40
2022-09-06T03:26:44.283Z,12.20
2022-09-06T03:31:46.683Z,12.30
2022-09-06T03:36:49.214Z,12.30
2022-09-06T03:41:51.696Z,12.20
2022-09-06T03:46:54.171Z,12.20
2022-09-06T03:51:57.026Z,12.30
2022-09-06T03:56:59.439Z,12.10
2022-09-06T04:02:02.300Z,12.10
2022-09-06T04:07:04.839Z,11.90
2022-09-06T04:12:07.337Z,11.90
2022-09-06T04:17:10.054Z,11.90
2022-09-06T04:22:12.475Z,11.80
2022-09-06T04:27:14.861Z,11.80
2022-09-06T04:32:17.241Z,11.90
2022-09-06T04:37:20.160Z,11.90
2022-09-06T04:42:22.578Z,11.90
2022-09-06T04:47:25.906Z,11.80
2022-09-06T04:52:30.331Z,12.00
2022-09-06T04:57:32.970Z,12.10
2022-09-06T05:02:35.558Z,12.00
2022-09-06T05:07:37.965Z,12.10
2022-09-06T05:12:44.105Z,12.10
2022-09-06T05:17:46.952Z,12.10
2022-09-06T05:22:53.824Z,12.10
2022-09-06T05:27:56.260Z,12.20
2022-09-06T05:32:58.763Z,12.30
2022-09-06T05:38:01.171Z,12.50
2022-09-06T05:43:03.558Z,12.60
2022-09-06T05:48:06.045Z,12.60
2022-09-06T05:53:08.496Z,12.50
2022-09-06T05:58:10.967Z,12.70
2022-09-06T06:03:13.375Z,12.80
2022-09-06T06:08:15.763Z,12.90
2022-09-06T06:13:18.177Z,12.90
2022-09-06T06:18:20.586Z,13.10
2022-09-06T06:23:23.028Z,13.10
2022-09-06T06:28:25.748Z,13.30
2022-09-06T06:33:28.208Z,13.50
2022-09-06T06:38:37.960Z,13.60
2022-09-06T06:43:40.668Z,13.70
2022-09-06T06:48:44.613Z,13.80
2022-09-06T06:53:48.247Z,13.90
2022-09-06T06:58:53.905Z,14.20
2022-09-06T07:03:56.786Z,14.30
2022-09-06T07:08:59.678Z,14.50
2022-09-06T07:14:02.084Z,14.50
2022-09-06T07:19:04.756Z,14.70
2022-09-06T07:24:10.552Z,15.00
2022-09-06T07:29:13.489Z,15.20
2022-09-06T07:34:17.758Z,15.20
2022-09-06T07:39:20.580Z,15.50
2022-09-06T07:44:23.049Z,15.70
2022-09-06T07:49:25.608Z,15.90
2022-09-06T07:54:31.052Z,16.00
2022-09-06T07:59:33.851Z,16.10
2022-09-06T08:04:36.308Z,16.10
2022-09-06T08:09:38.704Z,16.30
2022-09-06T08:14:41.147Z,16.40
2022-09-06T08:19:43.540Z,16.60
2022-09-06T08:24:45.923Z,16.80
2022-09-06T08:29:48.364Z,16.90
2022-09-06T08:34:50.840Z,17.10
2022-09-06T08:39:53.329Z,17.20
2022-09-06T08:44:58.737Z,17.40
2022-09-06T08:50:04.630Z,17.40
2022-09-06T08:55:13.439Z,17.70
2022-09-06T09:00:15.956Z,18.00
2022-09-06T09:05:41.563Z,18.10
2022-09-06T09:10:48.595Z,18.40
2022-09-06T09:15:51.166Z,18.60
2022-09-06T09:20:53.656Z,18.70
2022-09-06T09:26:00.984Z,18.90
2022-09-06T09:31:04.196Z,19.20
2022-09-06T09:36:10.371Z,19.40
2022-09-06T09:41:31.803Z,19.40
2022-09-06T09:46:36.494Z,19.50
2022-09-06T09:51:44.959Z,19.80
2022-09-06T09:56:49.575Z,20.10
2022-09-06T10:01:55.802Z,20.40
2022-09-06T10:07:10.168Z,20.40
2022-09-06T10:12:29.290Z,20.70
2022-09-06T10:17:35.931Z,21.00
2022-09-06T10:23:08.713Z,21.40
2022-09-06T10:28:29.789Z,21.70
2022-09-06T10:34:10.026Z,21.90
2022-09-06T10:39:32.708Z,21.90
2022-09-06T10:44:45.656Z,22.40
2022-09-06T10:49:55.183Z,22.70
2022-09-06T10:55:04.157Z,23.30
2022-09-06T11:00:16.742Z,23.60
2022-09-06T11:05:39.407Z,23.60
2022-09-06T11:10:45.550Z,23.80
2022-09-06T11:16:06.707Z,23.70
2022-09-06T11:21:31.071Z,24.20
2022-09-06T11:26:43.697Z,24.50
2022-09-06T11:37:27.228Z,25.10
2022-09-06T11:43:01.057Z,25.10
2022-09-06T11:48:34.685Z,25.40
2022-09-06T11:53:48.977Z,25.60
2022-09-06T11:58:57.522Z,26.00
2022-09-06T12:09:29.548Z,26.20
2022-09-06T12:14:41.280Z,25.90
2022-09-06T12:19:54.206Z,25.90
2022-09-06T12:25:16.588Z,26.20
2022-09-06T12:30:39.091Z,26.30
2022-09-06T12:35:57.225Z,26.30
2022-09-06T12:41:01.255Z,26.80
2022-09-06T12:46:07.877Z,26.90
2022-09-06T12:51:19.583Z,27.20
2022-09-06T12:56:24.339Z,27.50
2022-09-06T13:01:32.999Z,27.60
2022-09-06T13:06:40.935Z,27.70
2022-09-06T13:11:46.435Z,27.50
2022-09-06T13:16:51.633Z,27.20
2022-09-06T13:21:54.007Z,26.70
2022-09-06T13:26:56.436Z,26.50
2022-09-06T13:32:01.927Z,26.70
2022-09-06T13:37:07.885Z,26.90
2022-09-06T13:42:33.518Z,27.40
2022-09-06T13:47:36.055Z,28.60
2022-09-06T13:52:38.531Z,30.40
2022-09-06T13:57:41.175Z,30.70
2022-09-06T14:02:49.848Z,29.70
2022-09-06T14:07:52.703Z,29.70
2022-09-06T14:12:55.178Z,30.30
2022-09-06T14:17:57.672Z,29.40
2022-09-06T14:23:00.114Z,28.70
2022-09-06T14:28:03.867Z,27.40
2022-09-06T14:33:06.318Z,26.90
2022-09-06T14:38:08.829Z,26.70
2022-09-06T14:43:11.583Z,26.30
2022-09-06T14:48:14.099Z,26.00
2022-09-06T14:53:38.817Z,25.80
2022-09-06T14:58:40.847Z,25.30
2022-09-06T15:03:51.445Z,24.90
2022-09-06T15:08:58.560Z,25.20
2022-09-06T15:14:04.073Z,25.40
2022-09-06T15:19:07.877Z,25.50
2022-09-06T15:24:12.166Z,25.50
2022-09-06T15:29:15.689Z,25.40
2022-09-06T15:34:20.238Z,25.30
2022-09-06T15:39:22.758Z,24.90
2022-09-06T15:44:25.413Z,24.40
2022-09-06T15:49:34.719Z,24.20
2022-09-06T15:54:55.902Z,23.80
2022-09-06T15:59:58.369Z,23.60
2022-09-06T16:05:01.160Z,23.50
2022-09-06T16:10:04.007Z,23.40
2022-09-06T16:15:07.146Z,23.30
2022-09-06T16:20:10.256Z,23.10
2022-09-06T16:25:12.640Z,23.00
2022-09-06T16:30:15.081Z,22.90
2022-09-06T16:35:17.856Z,22.80
2022-09-06T16:40:20.273Z,22.70
2022-09-06T16:45:22.698Z,22.60
2022-09-06T16:50:25.320Z,22.40
2022-09-06T16:55:27.669Z,22.10
2022-09-06T17:00:30.093Z,21.90
2022-09-06T17:05:35.423Z,21.60
2022-09-06T17:10:39.760Z,21.40
2022-09-06T17:16:00.989Z,21.20
2022-09-06T17:21:06.179Z,21.00
2022-09-06T17:26:08.811Z,20.80
2022-09-06T17:31:11.375Z,20.60
2022-09-06T17:36:17.749Z,20.10
2022-09-06T17:41:25.679Z,20.00
2022-09-06T17:46:29.209Z,19.80
2022-09-06T17:51:32.340Z,19.60
2022-09-06T17:56:35.194Z,19.40
2022-09-06T18:01:40.470Z,19.40
2022-09-06T18:06:46.338Z,19.30
2022-09-06T18:11:49.234Z,19.10
2022-09-06T18:16:52.229Z,19.00
2022-09-06T18:21:57.138Z,18.90
2022-09-06T18:26:59.758Z,18.80
2022-09-06T18:32:02.489Z,18.70
2022-09-06T18:37:05.810Z,18.60
2022-09-06T18:42:11.326Z,18.40
2022-09-06T18:47:13.750Z,18.30
2022-09-06T18:52:16.413Z,18.30
2022-09-06T18:57:18.822Z,18.20
2022-09-06T19:02:23.553Z,18.20
2022-09-06T19:07:28.550Z,18.20
2022-09-06T19:12:33.384Z,18.20
2022-09-06T19:17:35.774Z,18.30
2022-09-06T19:22:38.393Z,18.10
2022-09-06T19:27:40.771Z,18.10
2022-09-06T19:32:43.231Z,18.00
2022-09-06T19:37:45.718Z,17.90
2022-09-06T19:42:48.151Z,17.80
2022-09-06T19:47:50.544Z,17.80
2022-09-06T19:52:53.102Z,17.80
2022-09-06T19:57:55.522Z,17.90
2022-09-06T20:02:58.085Z,17.70
2022-09-06T20:08:00.744Z,17.60
2022-09-06T20:13:03.651Z,17.50
2022-09-06T20:18:06.086Z,17.30
2022-09-06T20:23:10.162Z,17.30
2022-09-06T20:28:12.573Z,17.20
2022-09-06T20:33:16.190Z,17.10
2022-09-06T20:38:18.893Z,17.00
2022-09-06T20:43:21.368Z,16.90
2022-09-06T20:48:23.858Z,16.80
2022-09-06T20:53:26.567Z,16.80
2022-09-06T20:58:30.241Z,16.70
2022-09-06T21:03:35.907Z,16.60
2022-09-06T21:08:42.550Z,16.50
2022-09-06T21:13:51.497Z,16.50
2022-09-06T21:18:59.071Z,16.30
2022-09-06T21:24:02.880Z,16.40
2022-09-06T21:29:05.633Z,16.20
2022-09-06T21:34:16.198Z,16.10
2022-09-06T21:39:19.257Z,16.00
2022-09-06T21:44:21.797Z,16.00
2022-09-06T21:49:24.178Z,15.90
2022-09-06T21:54:28.996Z,15.80
2022-09-06T21:59:31.513Z,15.70
2022-09-06T22:04:34.020Z,15.80
2022-09-06T22:09:36.471Z,15.60
2022-09-06T22:14:39.440Z,15.50
2022-09-06T22:19:42.017Z,15.50
2022-09-06T22:24:44.512Z,15.50
2022-09-06T22:29:46.983Z,15.40
2022-09-06T22:34:49.657Z,15.20
2022-09-06T22:39:52.291Z,15.10
2022-09-06T22:44:54.743Z,15.10
2022-09-06T22:49:57.158Z,14.90
2022-09-06T22:54:59.546Z,14.90
2022-09-06T23:00:02.389Z,14.90
2022-09-06T23:05:05.107Z,14.80
2022-09-06T23:10:07.919Z,14.80
2022-09-06T23:15:10.704Z,14.70
2022-09-06T23:20:14.226Z,14.70
2022-09-06T23:25:16.755Z,14.60
2022-09-06T23:30:19.322Z,14.50
2022-09-06T23:35:22.309Z,14.50
2022-09-06T23:40:24.859Z,14.50
2022-09-06T23:45:27.408Z,14.50
2022-09-06T23:50:29.835Z,14.50
2022-09-06T23:55:32.250Z,14.40
